createdAt,value
2022-08-09T00:00:11.920Z,3.63
2022-08-09T00:02:14.515Z,4.13
2022-08-09T00:04:34.321Z,4.15
2022-08-09T00:06:37.689Z,4.40
2022-08-09T00:08:39.553Z,3.80
2022-08-09T00:10:41.921Z,4.53
2022-08-09T00:12:43.658Z,4.20
2022-08-09T00:14:47.571Z,4.25
2022-08-09T00:16:54.869Z,4.43
2022-08-09T00:18:56.722Z,4.18
2022-08-09T00:20:59.021Z,4.18
2022-08-09T00:23:08.413Z,4.50
2022-08-09T00:25:23.073Z,4.13
2022-08-09T00:27:28.468Z,3.88
2022-08-09T00:30:16.071Z,4.20
2022-08-09T00:32:01.131Z,4.00
2022-08-09T00:34:04.432Z,4.32
2022-08-09T00:36:06.287Z,4.07
2022-08-09T00:38:12.648Z,3.90
2022-08-09T00:40:17.476Z,4.00
2022-08-09T00:44:14.248Z,4.00
2022-08-09T00:44:46.964Z,4.30
2022-08-09T00:46:57.232Z,4.20
2022-08-09T00:49:07.128Z,3.72
2022-08-09T00:51:11.733Z,4.07
2022-08-09T00:53:15.214Z,4.28
2022-08-09T00:55:32.693Z,4.17
2022-08-09T00:57:39.040Z,4.20
2022-08-09T00:59:46.890Z,4.13
2022-08-09T01:01:54.726Z,3.85
2022-08-09T01:04:08.067Z,4.20
2022-08-09T01:06:25.721Z,3.72
2022-08-09T01:09:20.677Z,3.97
2022-08-09T01:11:53.109Z,4.40
2022-08-09T01:14:02.124Z,4.45
2022-08-09T01:16:06.471Z,4.13
2022-08-09T01:18:09.597Z,4.53
2022-08-09T01:20:29.727Z,3.83
2022-08-09T01:22:40.419Z,4.32
2022-08-09T01:24:59.405Z,4.05
2022-08-09T01:27:17.827Z,4.18
2022-08-09T01:29:28.037Z,4.07
2022-08-09T01:32:30.701Z,4.10
2022-08-09T01:34:15.484Z,4.10
2022-08-09T01:36:23.081Z,4.10
2022-08-09T01:38:28.881Z,3.90
2022-08-09T01:40:32.243Z,4.20
2022-08-09T01:42:35.295Z,3.80
2022-08-09T01:44:38.452Z,3.95
2022-08-09T01:46:42.600Z,4.30
2022-08-09T01:48:49.672Z,4.50
2022-08-09T01:50:55.246Z,3.63
2022-08-09T01:52:58.134Z,3.72
2022-08-09T01:55:03.282Z,4.15
2022-08-09T01:57:10.098Z,3.88
2022-08-09T01:59:16.071Z,4.05
2022-08-09T02:01:20.145Z,4.40
2022-08-09T02:03:33.919Z,4.45
2022-08-09T02:06:03.861Z,4.22
2022-08-09T02:08:40.559Z,4.63
2022-08-09T02:10:31.969Z,4.15
2022-08-09T02:12:37.125Z,4.28
2022-08-09T02:14:42.649Z,4.45
2022-08-09T02:16:59.165Z,4.43
2022-08-09T02:19:06.910Z,4.38
2022-08-09T02:21:21.842Z,4.97
2022-08-09T02:23:40.049Z,4.38
2022-08-09T02:25:52.431Z,4.18
2022-08-09T02:28:03.674Z,4.47
2022-08-09T02:30:08.633Z,4.55
2022-08-09T02:34:41.014Z,5.32
2022-08-09T02:36:53.872Z,5.00
2022-08-09T02:38:59.068Z,4.68
2022-08-09T02:41:09.353Z,4.53
2022-08-09T02:43:11.985Z,4.60
2022-08-09T02:47:20.598Z,4.40
2022-08-09T02:49:38.391Z,5.00
2022-08-09T02:51:45.106Z,5.07
2022-08-09T02:54:01.237Z,4.57
2022-08-09T02:56:04.412Z,5.05
2022-08-09T02:58:36.876Z,4.45
2022-08-09T03:00:28.971Z,4.93
2022-08-09T03:02:32.107Z,4.03
2022-08-09T03:04:36.823Z,4.65
2022-08-09T03:06:39.685Z,5.13
2022-08-09T03:08:46.032Z,5.35
2022-08-09T03:10:50.803Z,4.55
2022-08-09T03:14:55.640Z,5.15
2022-08-09T03:16:59.386Z,4.82
2022-08-09T03:19:03.743Z,5.03
2022-08-09T03:21:16.820Z,4.47
2022-08-09T03:23:24.693Z,4.75
2022-08-09T03:25:59.207Z,5.25
2022-08-09T03:27:51.442Z,4.63
2022-08-09T03:30:00.882Z,4.57
2022-08-09T03:32:04.715Z,4.82
2022-08-09T03:34:12.020Z,4.50
2022-08-09T03:36:17.279Z,5.03
2022-08-09T03:38:29.215Z,4.57
2022-08-09T03:40:32.237Z,5.17
2022-08-09T03:42:35.335Z,5.25
2022-08-09T03:44:37.227Z,4.75
2022-08-09T03:46:39.562Z,4.65
2022-08-09T03:48:48.216Z,5.43
2022-08-09T03:50:54.775Z,5.63
2022-08-09T03:53:00.452Z,4.97
2022-08-09T03:55:07.632Z,5.53
2022-08-09T03:57:19.813Z,5.50
2022-08-09T03:59:27.305Z,4.80
2022-08-09T04:01:30.686Z,5.15
2022-08-09T04:03:45.866Z,5.65
2022-08-09T04:05:56.793Z,5.28
2022-08-09T04:07:58.575Z,5.10
2022-08-09T04:10:00.658Z,5.50
2022-08-09T04:12:11.825Z,4.90
2022-08-09T04:14:54.218Z,5.00
2022-08-09T04:16:36.377Z,4.60
2022-08-09T04:18:40.755Z,5.22
2022-08-09T04:20:43.213Z,5.30
2022-08-09T04:22:47.024Z,5.15
2022-08-09T04:24:52.006Z,5.80
2022-08-09T04:26:54.742Z,5.60
2022-08-09T04:31:09.942Z,5.10
2022-08-09T04:33:14.741Z,5.20
2022-08-09T04:35:17.353Z,5.47
2022-08-09T04:37:23.396Z,5.40
2022-08-09T04:39:44.372Z,4.97
2022-08-09T04:41:51.328Z,5.35
2022-08-09T04:44:04.974Z,5.55
2022-08-09T04:46:19.220Z,5.28
2022-08-09T04:48:33.777Z,5.13
2022-08-09T04:50:38.036Z,4.80
2022-08-09T04:52:40.057Z,5.10
2022-08-09T04:54:42.927Z,5.40
2022-08-09T04:56:45.597Z,4.67
2022-08-09T04:58:47.360Z,5.05
2022-08-09T05:00:54.526Z,5.43
2022-08-09T05:02:56.969Z,5.25
2022-08-09T05:04:58.751Z,4.72
2022-08-09T05:07:18.908Z,5.57
2022-08-09T05:09:21.587Z,4.85
2022-08-09T05:11:23.719Z,5.43
2022-08-09T05:13:33.130Z,5.50
2022-08-09T05:15:39.042Z,5.82
2022-08-09T05:18:39.876Z,5.45
2022-08-09T05:20:09.425Z,5.95
2022-08-09T05:22:33.368Z,6.13
2022-08-09T05:24:35.744Z,5.60
2022-08-09T05:26:45.999Z,5.43
2022-08-09T05:28:49.419Z,5.40
2022-08-09T05:30:53.975Z,5.55
2022-08-09T05:32:56.291Z,5.15
2022-08-09T05:34:58.368Z,5.65
2022-08-09T05:37:02.383Z,6.18
2022-08-09T05:39:09.101Z,5.45
2022-08-09T05:41:12.866Z,5.88
2022-08-09T05:45:18.855Z,5.78
2022-08-09T05:47:24.801Z,5.25
2022-08-09T05:50:23.353Z,5.70
2022-08-09T05:51:48.827Z,5.90
2022-08-09T05:53:57.527Z,5.97
2022-08-09T05:56:00.068Z,5.45
2022-08-09T05:58:04.125Z,5.55
2022-08-09T06:00:09.745Z,5.15
2022-08-09T06:04:36.572Z,5.38
2022-08-09T06:06:41.630Z,5.45
2022-08-09T06:08:52.668Z,6.05
2022-08-09T06:10:56.003Z,5.80
2022-08-09T06:13:02.932Z,5.82
2022-08-09T06:15:16.303Z,5.90
2022-08-09T06:17:18.292Z,5.90
2022-08-09T06:19:21.934Z,6.43
2022-08-09T06:21:26.226Z,6.00
2022-08-09T06:23:58.662Z,6.20
2022-08-09T06:25:55.197Z,6.22
2022-08-09T06:27:57.248Z,5.65
2022-08-09T06:30:08.739Z,5.80
2022-08-09T06:32:53.562Z,6.53
2022-08-09T06:34:34.061Z,6.18
2022-08-09T06:36:36.267Z,7.32
2022-08-09T06:38:38.721Z,6.78
2022-08-09T06:40:49.115Z,6.40
2022-08-09T06:42:58.219Z,7.65
2022-08-09T06:45:00.550Z,8.52
2022-08-09T06:47:23.820Z,9.07
2022-08-09T06:49:44.687Z,8.27
2022-08-09T06:51:47.523Z,8.75
2022-08-09T06:53:51.634Z,7.20
2022-08-09T06:55:55.316Z,8.00
2022-08-09T06:58:02.938Z,6.88
2022-08-09T07:00:51.798Z,7.10
2022-08-09T07:02:29.192Z,6.70
2022-08-09T07:04:33.110Z,6.47
2022-08-09T07:06:35.491Z,6.43
2022-08-09T07:08:39.549Z,5.57
2022-08-09T07:10:41.482Z,6.00
2022-08-09T07:12:44.948Z,6.00
2022-08-09T07:14:59.571Z,5.90
2022-08-09T07:17:22.007Z,5.57
2022-08-09T07:19:24.003Z,5.70
2022-08-09T07:21:25.849Z,4.82
2022-08-09T07:23:32.739Z,5.30
2022-08-09T07:25:42.851Z,4.25
2022-08-09T07:27:53.158Z,4.30
2022-08-09T07:29:57.262Z,4.13
2022-08-09T07:32:01.360Z,4.38
2022-08-09T07:34:03.392Z,4.22
2022-08-09T07:36:05.335Z,4.57
2022-08-09T07:38:11.679Z,4.38
2022-08-09T07:40:17.520Z,3.85
2022-08-09T07:42:20.701Z,4.10
2022-08-09T07:44:51.649Z,3.78
2022-08-09T07:46:55.744Z,4.07
2022-08-09T07:48:59.380Z,3.83
2022-08-09T07:51:09.422Z,4.03
2022-08-09T07:53:45.112Z,4.30
2022-08-09T07:56:03.488Z,4.47
2022-08-09T07:58:13.236Z,4.30
2022-08-09T08:00:20.149Z,3.47
2022-08-09T08:02:36.747Z,4.10
2022-08-09T08:04:48.496Z,4.20
2022-08-09T08:06:56.187Z,3.92
2022-08-09T08:09:07.523Z,3.95
2022-08-09T08:12:09.868Z,5.40
2022-08-09T08:13:55.893Z,5.63
2022-08-09T08:15:58.742Z,3.78
2022-08-09T08:18:04.112Z,3.92
2022-08-09T08:20:13.010Z,4.38
2022-08-09T08:22:16.183Z,3.80
2022-08-09T08:24:18.322Z,3.80
2022-08-09T08:28:33.006Z,3.80
2022-08-09T08:30:35.098Z,4.10
2022-08-09T08:32:47.704Z,4.47
2022-08-09T08:34:58.535Z,3.90
2022-08-09T08:37:01.481Z,4.10
2022-08-09T08:39:04.211Z,4.00
2022-08-09T08:41:06.425Z,3.17
2022-08-09T08:43:13.655Z,3.22
2022-08-09T08:45:17.120Z,4.18
2022-08-09T08:47:42.866Z,3.80
2022-08-09T08:49:49.310Z,3.42
2022-08-09T08:52:00.262Z,4.18
2022-08-09T08:54:07.753Z,2.95
2022-08-09T08:56:25.035Z,3.50
2022-08-09T08:58:30.440Z,3.20
2022-08-09T09:00:34.629Z,2.97
2022-08-09T09:02:38.271Z,3.40
2022-08-09T09:04:52.742Z,3.28
2022-08-09T09:06:58.321Z,3.60
2022-08-09T09:09:00.899Z,3.38
2022-08-09T09:11:13.566Z,3.10
2022-08-09T09:13:19.870Z,2.80
2022-08-09T09:15:28.607Z,2.83
2022-08-09T09:18:05.025Z,3.13
2022-08-09T09:20:09.145Z,2.65
2022-08-09T09:22:26.626Z,2.78
2022-08-09T09:24:43.542Z,2.60
2022-08-09T09:26:57.820Z,2.72
2022-08-09T09:29:03.892Z,2.67
2022-08-09T09:32:04.344Z,2.40
2022-08-09T09:33:44.415Z,2.55
2022-08-09T09:36:02.321Z,2.53
2022-08-09T09:38:05.401Z,2.60
2022-08-09T09:40:13.033Z,2.58
2022-08-09T09:42:26.584Z,2.47
2022-08-09T09:44:34.916Z,1.65
2022-08-09T09:46:42.985Z,1.80
2022-08-09T09:49:07.570Z,1.55
2022-08-09T09:51:38.650Z,1.50
2022-08-09T09:54:01.040Z,1.60
2022-08-09T09:56:05.450Z,2.10
2022-08-09T09:58:18.765Z,2.17
2022-08-09T10:00:26.811Z,2.50
2022-08-09T10:02:29.619Z,2.30
2022-08-09T10:04:31.718Z,2.22
2022-08-09T10:06:43.478Z,2.40
2022-08-09T10:08:54.907Z,2.00
2022-08-09T10:10:57.645Z,2.25
2022-08-09T10:12:59.766Z,1.88
2022-08-09T10:15:17.668Z,2.28
2022-08-09T10:17:50.487Z,2.10
2022-08-09T10:19:57.256Z,2.08
2022-08-09T10:22:00.835Z,2.20
2022-08-09T10:24:04.463Z,2.00
2022-08-09T10:26:11.132Z,3.53
2022-08-09T10:28:13.662Z,2.17
2022-08-09T10:32:58.890Z,2.20
2022-08-09T10:35:01.656Z,1.88
2022-08-09T10:37:03.826Z,2.30
2022-08-09T10:39:16.086Z,2.13
2022-08-09T10:41:21.164Z,1.67
2022-08-09T10:43:24.067Z,1.77
2022-08-09T10:45:31.710Z,1.70
2022-08-09T10:48:12.099Z,2.00
2022-08-09T10:50:51.733Z,1.90
2022-08-09T10:53:12.587Z,1.52
2022-08-09T10:55:30.103Z,2.00
2022-08-09T10:57:55.632Z,1.83
2022-08-09T11:00:02.131Z,1.55
2022-08-09T11:03:11.676Z,1.90
2022-08-09T11:04:36.552Z,1.90
2022-08-09T11:07:01.559Z,2.30
2022-08-09T11:09:16.203Z,2.60
2022-08-09T11:11:19.783Z,2.05
2022-08-09T11:13:53.709Z,2.03
2022-08-09T11:15:51.160Z,2.85
2022-08-09T11:18:05.973Z,2.65
2022-08-09T11:20:22.346Z,2.08
2022-08-09T11:22:43.033Z,2.28
2022-08-09T11:25:08.316Z,2.15
2022-08-09T11:28:04.461Z,2.65
2022-08-09T11:30:06.361Z,2.25
2022-08-09T11:33:06.511Z,2.42
2022-08-09T11:35:18.200Z,2.10
2022-08-09T11:37:40.943Z,2.30
2022-08-09T11:40:03.973Z,2.67
2022-08-09T11:42:14.585Z,2.67
2022-08-09T11:46:54.031Z,2.45
2022-08-09T11:48:58.637Z,2.65
2022-08-09T11:56:48.486Z,3.08
2022-08-09T11:58:56.530Z,2.70
2022-08-09T12:01:01.697Z,2.33
2022-08-09T12:03:50.715Z,2.53
2022-08-09T12:05:42.094Z,2.40
2022-08-09T12:07:44.391Z,2.55
2022-08-09T12:09:50.628Z,2.78
2022-08-09T12:12:11.933Z,2.50
2022-08-09T12:14:40.967Z,2.50
2022-08-09T12:16:43.366Z,2.80
2022-08-09T12:18:53.739Z,2.67
2022-08-09T12:20:56.291Z,2.50
2022-08-09T12:23:02.845Z,2.80
2022-08-09T12:25:15.331Z,3.08
2022-08-09T12:29:11.902Z,2.85
2022-08-09T12:30:01.541Z,2.30
2022-08-09T12:32:16.934Z,3.13
2022-08-09T12:34:32.640Z,2.40
2022-08-09T12:36:36.099Z,2.63
2022-08-09T12:38:38.861Z,3.22
2022-08-09T12:40:47.511Z,2.78
2022-08-09T12:42:54.523Z,2.85
2022-08-09T12:44:56.425Z,3.30
2022-08-09T12:47:01.366Z,3.03
2022-08-09T12:49:04.463Z,2.40
2022-08-09T12:53:37.008Z,2.50
2022-08-09T12:56:15.023Z,3.00
2022-08-09T12:58:12.224Z,3.25
2022-08-09T13:00:34.654Z,2.17
2022-08-09T13:02:54.233Z,2.90
2022-08-09T13:05:02.385Z,2.60
2022-08-09T13:07:13.782Z,2.80
2022-08-09T13:09:18.255Z,2.47
2022-08-09T13:11:29.316Z,2.60
2022-08-09T13:14:36.722Z,2.38
2022-08-09T13:15:58.744Z,2.55
2022-08-09T13:18:17.310Z,2.50
2022-08-09T13:20:37.521Z,3.13
2022-08-09T13:23:05.655Z,3.15
2022-08-09T13:25:19.959Z,2.38
2022-08-09T13:27:31.618Z,2.97
2022-08-09T13:30:04.119Z,2.53
2022-08-09T13:32:26.488Z,2.75
2022-08-09T13:34:35.687Z,2.88
2022-08-09T13:36:43.302Z,2.45
2022-08-09T13:38:57.752Z,2.85
2022-08-09T13:41:50.577Z,2.85
2022-08-09T13:43:23.288Z,2.20
2022-08-09T13:46:42.246Z,2.53
2022-08-09T13:48:00.172Z,2.67
2022-08-09T13:50:12.495Z,2.53
2022-08-09T13:52:14.760Z,2.90
2022-08-09T13:54:20.611Z,2.83
2022-08-09T13:56:27.619Z,2.60
2022-08-09T13:58:29.569Z,2.70
2022-08-09T14:00:37.934Z,2.72
2022-08-09T14:03:03.864Z,2.50
2022-08-09T14:05:10.973Z,2.78
2022-08-09T14:07:26.163Z,3.17
2022-08-09T14:09:50.593Z,2.95
2022-08-09T14:11:57.940Z,2.70
2022-08-09T14:14:24.858Z,2.97
2022-08-09T14:16:28.721Z,2.70
2022-08-09T14:18:43.147Z,3.15
2022-08-09T14:21:20.879Z,2.67
2022-08-09T14:23:40.441Z,2.40
2022-08-09T14:25:46.131Z,2.70
2022-08-09T14:27:58.463Z,2.67
2022-08-09T14:30:35.341Z,2.67
2022-08-09T14:32:30.786Z,2.63
2022-08-09T14:34:40.939Z,2.90
2022-08-09T14:38:45.713Z,2.80
2022-08-09T14:41:04.182Z,2.72
2022-08-09T14:43:18.736Z,2.83
2022-08-09T14:46:58.659Z,2.78
2022-08-09T14:47:49.688Z,2.65
2022-08-09T14:50:01.924Z,2.80
2022-08-09T14:52:04.451Z,2.95
2022-08-09T14:54:09.337Z,2.67
2022-08-09T14:56:13.230Z,2.60
2022-08-09T14:58:15.740Z,2.85
2022-08-09T15:00:18.182Z,2.75
2022-08-09T15:02:20.413Z,2.83
2022-08-09T15:04:23.586Z,3.28
2022-08-09T15:06:25.673Z,3.20
2022-08-09T15:08:31.847Z,2.75
2022-08-09T15:10:35.241Z,2.97
2022-08-09T15:12:36.956Z,3.10
2022-08-09T15:14:39.340Z,2.80
2022-08-09T15:16:41.273Z,2.40
2022-08-09T15:18:48.953Z,2.78
2022-08-09T15:21:58.053Z,3.03
2022-08-09T15:24:05.635Z,3.33
2022-08-09T15:25:41.159Z,2.78
2022-08-09T15:27:54.993Z,2.95
2022-08-09T15:30:56.334Z,2.70
2022-08-09T15:32:29.783Z,3.03
2022-08-09T15:34:35.080Z,3.20
2022-08-09T15:36:37.617Z,2.72
2022-08-09T15:38:42.392Z,2.65
2022-08-09T15:42:49.279Z,2.50
2022-08-09T15:44:51.090Z,2.90
2022-08-09T15:46:52.903Z,2.70
2022-08-09T15:49:21.251Z,3.58
2022-08-09T15:51:44.378Z,3.35
2022-08-09T15:54:05.275Z,2.78
2022-08-09T15:58:27.233Z,3.10
2022-08-09T16:00:29.141Z,3.15
2022-08-09T16:02:32.693Z,3.15
2022-08-09T16:04:34.471Z,3.00
2022-08-09T16:06:38.712Z,3.20
2022-08-09T16:08:49.709Z,3.30
2022-08-09T16:10:56.448Z,2.75
2022-08-09T16:12:58.894Z,3.47
2022-08-09T16:15:02.284Z,4.03
2022-08-09T16:17:05.931Z,3.05
2022-08-09T16:19:08.780Z,3.05
2022-08-09T16:21:11.225Z,3.40
2022-08-09T16:23:13.213Z,3.03
2022-08-09T16:25:15.745Z,3.40
2022-08-09T16:27:17.795Z,2.97
2022-08-09T16:29:20.124Z,3.03
2022-08-09T16:32:11.066Z,3.08
2022-08-09T16:33:43.982Z,2.90
2022-08-09T16:35:57.142Z,3.20
2022-08-09T16:38:01.959Z,2.92
2022-08-09T16:40:04.769Z,3.10
2022-08-09T16:42:07.607Z,2.90
2022-08-09T16:44:10.544Z,3.63
2022-08-09T16:46:14.635Z,3.00
2022-08-09T16:48:39.964Z,3.58
2022-08-09T16:50:38.890Z,2.90
2022-08-09T16:52:40.955Z,3.33
2022-08-09T16:54:45.075Z,2.78
2022-08-09T16:56:49.134Z,3.10
2022-08-09T16:58:51.882Z,2.90
2022-08-09T17:00:53.663Z,4.03
2022-08-09T17:02:57.391Z,3.03
2022-08-09T17:08:46.352Z,2.97
2022-08-09T17:09:45.076Z,3.30
2022-08-09T17:11:48.163Z,3.50
2022-08-09T17:14:01.949Z,3.42
2022-08-09T17:16:04.435Z,2.97
2022-08-09T17:18:06.964Z,3.40
2022-08-09T17:20:32.362Z,2.53
2022-08-09T17:22:34.495Z,3.33
2022-08-09T17:24:37.859Z,3.45
2022-08-09T17:26:53.417Z,2.50
2022-08-09T17:28:55.997Z,2.80
2022-08-09T17:30:59.278Z,3.20
2022-08-09T17:33:05.521Z,4.15
2022-08-09T17:35:24.297Z,3.10
2022-08-09T17:37:26.331Z,3.17
2022-08-09T17:39:53.086Z,3.83
2022-08-09T17:41:54.228Z,3.25
2022-08-09T17:44:38.065Z,3.23
2022-08-09T17:46:18.229Z,3.53
2022-08-09T17:48:20.166Z,3.00
2022-08-09T17:50:36.939Z,3.00
2022-08-09T17:52:39.990Z,3.20
2022-08-09T17:54:42.240Z,3.20
2022-08-09T17:56:45.050Z,3.20
2022-08-09T17:58:47.154Z,3.00
2022-08-09T18:00:49.247Z,2.60
2022-08-09T18:02:58.535Z,2.75
2022-08-09T18:05:01.154Z,3.17
2022-08-09T18:07:07.492Z,3.20
2022-08-09T18:09:40.593Z,3.30
2022-08-09T18:12:05.802Z,3.35
2022-08-09T18:14:13.297Z,3.20
2022-08-09T18:16:16.964Z,4.13
2022-08-09T18:18:32.891Z,3.40
2022-08-09T18:20:54.060Z,3.35
2022-08-09T18:23:05.581Z,3.58
2022-08-09T18:25:09.746Z,3.70
2022-08-09T18:27:18.791Z,3.60
2022-08-09T18:30:35.215Z,4.22
2022-08-09T18:31:58.873Z,4.50
2022-08-09T18:34:00.740Z,4.00
2022-08-09T18:36:02.606Z,4.30
2022-08-09T18:38:04.334Z,4.45
2022-08-09T18:40:07.746Z,4.43
2022-08-09T18:42:09.992Z,4.80
2022-08-09T18:44:16.832Z,5.38
2022-08-09T18:46:50.786Z,6.20
2022-08-09T18:48:42.591Z,4.85
2022-08-09T18:50:45.235Z,4.93
2022-08-09T18:52:50.982Z,4.60
2022-08-09T18:54:53.626Z,4.68
2022-08-09T18:56:55.515Z,4.45
2022-08-09T18:58:57.665Z,4.10
2022-08-09T19:01:02.887Z,4.65
2022-08-09T19:03:04.601Z,5.10
2022-08-09T19:05:19.681Z,4.50
2022-08-09T19:07:31.441Z,4.05
2022-08-09T19:11:55.253Z,5.00
2022-08-09T19:14:03.019Z,4.97
2022-08-09T19:16:05.313Z,4.88
2022-08-09T19:18:17.205Z,4.70
2022-08-09T19:20:34.208Z,4.70
2022-08-09T19:22:38.843Z,4.80
2022-08-09T19:27:14.235Z,5.00
2022-08-09T19:31:23.646Z,4.38
2022-08-09T19:33:28.304Z,4.60
2022-08-09T19:35:57.032Z,5.28
2022-08-09T19:37:56.334Z,4.70
2022-08-09T19:40:04.260Z,5.80
2022-08-09T19:42:07.448Z,5.95
2022-08-09T19:44:09.201Z,6.80
2022-08-09T19:46:14.495Z,5.80
2022-08-09T19:48:17.172Z,6.72
2022-08-09T19:50:50.429Z,6.03
2022-08-09T19:52:55.722Z,6.13
2022-08-09T19:54:57.480Z,5.75
2022-08-09T19:57:00.808Z,5.75
2022-08-09T19:59:40.576Z,6.30
2022-08-09T20:01:28.564Z,6.07
2022-08-09T20:04:17.127Z,6.45
2022-08-09T20:06:23.703Z,5.82
2022-08-09T20:08:34.776Z,6.03
2022-08-09T20:10:37.388Z,5.65
2022-08-09T20:12:45.590Z,5.68
2022-08-09T20:14:50.251Z,5.78
2022-08-09T20:16:55.165Z,5.60
2022-08-09T20:19:04.075Z,5.22
2022-08-09T20:21:22.078Z,5.55
2022-08-09T20:23:42.743Z,5.50
2022-08-09T20:25:51.243Z,6.20
2022-08-09T20:27:55.852Z,5.93
2022-08-09T20:29:58.848Z,5.50
2022-08-09T20:32:30.537Z,5.97
2022-08-09T20:34:22.529Z,6.10
2022-08-09T20:36:24.939Z,5.63
2022-08-09T20:41:10.690Z,5.68
2022-08-09T20:43:18.940Z,5.47
2022-08-09T20:45:59.898Z,5.18
2022-08-09T20:47:48.845Z,5.35
2022-08-09T20:49:51.098Z,4.70
2022-08-09T20:51:54.374Z,5.85
2022-08-09T20:53:56.113Z,4.93
2022-08-09T20:56:02.607Z,4.90
2022-08-09T20:58:08.069Z,5.03
2022-08-09T21:00:31.285Z,4.82
2022-08-09T21:02:34.699Z,4.78
2022-08-09T21:05:56.531Z,5.10
2022-08-09T21:06:58.827Z,5.10
2022-08-09T21:09:00.689Z,4.82
2022-08-09T21:13:29.582Z,4.90
2022-08-09T21:15:54.375Z,5.13
2022-08-09T21:18:21.161Z,4.90
2022-08-09T21:20:25.972Z,4.95
2022-08-09T21:22:38.596Z,5.22
2022-08-09T21:25:01.024Z,4.95
2022-08-09T21:27:50.221Z,4.85
2022-08-09T21:29:25.624Z,4.78
2022-08-09T21:31:49.269Z,4.32
2022-08-09T21:33:52.429Z,4.80
2022-08-09T21:35:54.847Z,4.85
2022-08-09T21:38:02.191Z,5.07
2022-08-09T21:40:10.683Z,4.28
2022-08-09T21:42:13.481Z,4.82
2022-08-09T21:44:33.971Z,4.82
2022-08-09T21:46:37.307Z,4.82
2022-08-09T21:48:39.189Z,4.80
2022-08-09T21:50:49.747Z,4.60
2022-08-09T21:52:53.901Z,4.43
2022-08-09T21:55:03.997Z,4.28
2022-08-09T21:57:06.406Z,4.53
2022-08-09T21:59:27.292Z,4.43
2022-08-09T22:02:01.178Z,4.28
2022-08-09T22:04:03.750Z,4.55
2022-08-09T22:06:05.695Z,4.18
2022-08-09T22:08:13.248Z,4.28
2022-08-09T22:10:22.901Z,4.43
2022-08-09T22:12:30.807Z,4.30
2022-08-09T22:14:36.290Z,4.70
2022-08-09T22:16:38.244Z,4.55
2022-08-09T22:18:52.965Z,4.55
2022-08-09T22:20:56.723Z,4.70
2022-08-09T22:22:59.485Z,4.50
2022-08-09T22:26:06.844Z,4.78
2022-08-09T22:27:23.436Z,4.28
2022-08-09T22:29:32.284Z,4.15
2022-08-09T22:31:56.530Z,4.15
2022-08-09T22:33:59.580Z,5.07
2022-08-09T22:36:03.789Z,4.50
2022-08-09T22:38:07.692Z,4.13
2022-08-09T22:40:10.992Z,4.38
2022-08-09T22:42:23.567Z,4.32
2022-08-09T22:48:12.381Z,4.05
2022-08-09T22:48:59.957Z,4.28
2022-08-09T22:51:10.931Z,4.53
2022-08-09T22:53:25.707Z,4.65
2022-08-09T22:56:06.205Z,4.68
2022-08-09T22:57:59.912Z,4.82
2022-08-09T23:00:02.159Z,5.10
2022-08-09T23:02:04.013Z,4.78
2022-08-09T23:04:07.254Z,4.75
2022-08-09T23:08:35.064Z,4.68
2022-08-09T23:10:41.616Z,4.68
2022-08-09T23:12:45.322Z,4.68
2022-08-09T23:14:47.095Z,4.90
2022-08-09T23:16:55.626Z,4.60
2022-08-09T23:18:57.699Z,4.32
2022-08-09T23:20:59.420Z,5.10
2022-08-09T23:23:01.153Z,4.28
2022-08-09T23:25:05.036Z,4.60
2022-08-09T23:27:06.751Z,4.18
2022-08-09T23:29:11.693Z,5.60
2022-08-09T23:31:13.447Z,4.90
2022-08-09T23:33:15.441Z,4.82
2022-08-09T23:35:17.296Z,4.75
2022-08-09T23:37:22.662Z,4.78
2022-08-09T23:39:27.303Z,5.00
2022-08-09T23:41:29.818Z,5.22
2022-08-09T23:43:31.814Z,4.75
2022-08-09T23:45:37.019Z,4.93
2022-08-09T23:47:40.343Z,5.63
2022-08-09T23:49:42.230Z,4.97
2022-08-09T23:51:44.002Z,4.85
2022-08-09T23:53:45.779Z,4.90
2022-08-09T23:55:55.484Z,4.95
2022-08-09T23:58:10.722Z,5.15
